createdAt,value
2022-09-23T00:01:03.003Z,97.65
2022-09-23T00:03:30.893Z,98.16
2022-09-23T00:06:02.808Z,97.61
2022-09-23T00:08:30.406Z,98.00
2022-09-23T00:10:57.788Z,96.41
2022-09-23T00:13:25.029Z,95.74
2022-09-23T00:15:51.829Z,93.99
2022-09-23T00:18:20.747Z,93.94
2022-09-23T00:20:47.915Z,93.63
2022-09-23T00:23:14.985Z,94.50
2022-09-23T00:25:41.659Z,93.92
2022-09-23T00:28:08.035Z,93.47
2022-09-23T00:30:35.616Z,92.90
2022-09-23T00:33:02.020Z,93.17
2022-09-23T00:35:28.684Z,93.35
2022-09-23T00:37:55.296Z,93.25
2022-09-23T00:40:21.731Z,93.26
2022-09-23T00:42:51.367Z,92.42
2022-09-23T00:45:18.178Z,92.16
2022-09-23T00:47:51.132Z,93.46
2022-09-23T00:50:43.530Z,94.82
2022-09-23T00:53:30.794Z,93.38
2022-09-23T00:56:21.114Z,94.47
2022-09-23T00:59:10.308Z,94.71
2022-09-23T01:01:59.231Z,94.52
2022-09-23T01:04:46.128Z,96.08
2022-09-23T01:07:13.598Z,95.96
2022-09-23T01:09:40.371Z,97.76
2022-09-23T01:12:34.514Z,99.40
2022-09-23T01:15:18.243Z,99.75
2022-09-23T01:18:08.587Z,98.38
2022-09-23T01:20:48.613Z,97.48
2022-09-23T01:23:31.509Z,96.76
2022-09-23T01:26:38.990Z,96.80
2022-09-23T01:29:43.336Z,96.74
2022-09-23T01:32:31.335Z,96.07
2022-09-23T01:35:07.198Z,95.44
2022-09-23T01:37:37.920Z,95.77
2022-09-23T01:40:23.504Z,94.64
2022-09-23T01:43:00.599Z,94.52
2022-09-23T01:45:43.584Z,93.46
2022-09-23T01:48:24.109Z,93.37
2022-09-23T01:51:00.692Z,92.26
2022-09-23T01:53:41.144Z,92.85
2022-09-23T01:56:15.380Z,90.75
2022-09-23T01:58:50.108Z,90.43
2022-09-23T02:01:28.000Z,90.63
2022-09-23T02:04:04.160Z,89.68
2022-09-23T02:06:37.312Z,89.11
2022-09-23T02:09:12.474Z,90.59
2022-09-23T02:11:42.596Z,88.88
2022-09-23T02:14:17.165Z,87.16
2022-09-23T02:16:51.052Z,87.58
2022-09-23T02:19:33.115Z,87.60
2022-09-23T02:22:09.636Z,89.09
2022-09-23T02:24:39.318Z,89.58
2022-09-23T02:27:37.462Z,90.41
2022-09-23T02:30:03.951Z,90.61
2022-09-23T02:32:51.849Z,92.14
2022-09-23T02:35:42.836Z,93.38
2022-09-23T02:38:41.981Z,95.59
2022-09-23T02:41:27.292Z,96.87
2022-09-23T02:44:02.225Z,97.25
2022-09-23T02:46:32.086Z,97.98
2022-09-23T02:49:37.179Z,97.56
2022-09-23T02:52:07.719Z,97.09
2022-09-23T02:54:35.509Z,96.85
2022-09-23T02:57:07.928Z,96.83
2022-09-23T02:59:36.079Z,96.52
2022-09-23T03:02:29.798Z,96.38
2022-09-23T03:05:03.759Z,97.46
2022-09-23T03:07:49.592Z,99.42
2022-09-23T03:10:23.534Z,100.00
2022-09-23T03:13:05.827Z,100.00
2022-09-23T03:15:48.521Z,100.00
2022-09-23T03:18:37.489Z,100.00
2022-09-23T03:21:12.233Z,100.00
2022-09-23T03:23:41.466Z,100.00
2022-09-23T03:26:16.286Z,100.00
2022-09-23T03:28:45.612Z,100.00
2022-09-23T03:31:13.682Z,99.22
2022-09-23T03:34:03.497Z,98.48
2022-09-23T03:36:52.254Z,98.39
2022-09-23T03:39:26.244Z,96.37
2022-09-23T03:41:55.616Z,96.35
2022-09-23T03:44:23.301Z,96.21
2022-09-23T03:46:50.343Z,94.95
2022-09-23T03:49:24.144Z,93.90
2022-09-23T03:51:51.005Z,94.11
2022-09-23T03:54:20.217Z,95.18
2022-09-23T03:56:47.799Z,95.01
2022-09-23T03:59:17.443Z,95.35
2022-09-23T04:01:44.642Z,94.36
2022-09-23T04:04:11.215Z,97.28
2022-09-23T04:06:37.876Z,100.00
2022-09-23T04:09:04.590Z,100.00
2022-09-23T04:11:30.983Z,100.00
2022-09-23T04:13:58.100Z,100.00
2022-09-23T04:16:25.068Z,100.00
2022-09-23T04:18:51.884Z,100.00
2022-09-23T04:21:18.781Z,100.00
2022-09-23T04:23:46.439Z,100.00
2022-09-23T04:26:13.706Z,100.00
2022-09-23T04:28:40.651Z,100.00
2022-09-23T04:31:09.226Z,100.00
2022-09-23T04:33:36.063Z,100.00
2022-09-23T04:36:02.512Z,100.00
2022-09-23T04:38:29.183Z,100.00
2022-09-23T04:40:55.925Z,100.00
2022-09-23T04:43:23.553Z,100.00
2022-09-23T04:46:01.106Z,100.00
2022-09-23T04:48:28.442Z,100.00
2022-09-23T04:51:03.289Z,100.00
2022-09-23T04:53:30.294Z,100.00
2022-09-23T04:56:11.979Z,100.00
2022-09-23T04:58:39.916Z,100.00
2022-09-23T05:01:18.718Z,100.00
2022-09-23T05:03:46.755Z,100.00
2022-09-23T05:06:14.722Z,100.00
2022-09-23T05:08:46.270Z,100.00
2022-09-23T05:11:12.804Z,100.00
2022-09-23T05:13:39.427Z,100.00
2022-09-23T05:16:08.931Z,100.00
2022-09-23T05:18:36.235Z,100.00
2022-09-23T05:21:03.453Z,100.00
2022-09-23T05:23:30.349Z,100.00
2022-09-23T05:25:59.242Z,100.00
2022-09-23T05:28:31.198Z,100.00
2022-09-23T05:31:07.486Z,100.00
2022-09-23T05:33:35.749Z,100.00
2022-09-23T05:36:15.424Z,100.00
2022-09-23T05:38:42.599Z,100.00
2022-09-23T05:41:12.559Z,100.00
2022-09-23T05:43:39.780Z,100.00
2022-09-23T05:46:17.283Z,100.00
2022-09-23T05:48:47.465Z,100.00
2022-09-23T05:51:22.473Z,100.00
2022-09-23T05:53:52.659Z,100.00
2022-09-23T05:56:23.032Z,100.00
2022-09-23T05:58:55.572Z,100.00
2022-09-23T06:01:27.567Z,100.00
2022-09-23T06:03:56.380Z,100.00
2022-09-23T06:06:36.051Z,100.00
2022-09-23T06:09:04.043Z,100.00
2022-09-23T06:11:32.078Z,100.00
2022-09-23T06:14:00.919Z,100.00
2022-09-23T06:16:29.068Z,100.00
2022-09-23T06:19:01.769Z,100.00
2022-09-23T06:21:32.321Z,100.00
2022-09-23T06:24:03.029Z,100.00
2022-09-23T06:26:33.613Z,100.00
2022-09-23T06:29:02.923Z,100.00
2022-09-23T06:31:29.910Z,100.00
2022-09-23T06:34:07.285Z,100.00
2022-09-23T06:36:43.239Z,100.00
2022-09-23T06:39:11.935Z,100.00
2022-09-23T06:41:39.037Z,100.00
2022-09-23T06:44:11.459Z,100.00
2022-09-23T06:46:38.134Z,100.00
2022-09-23T06:49:05.014Z,100.00
2022-09-23T06:51:31.610Z,100.00
2022-09-23T06:53:58.265Z,100.00
2022-09-23T06:56:24.902Z,100.00
2022-09-23T06:58:52.270Z,100.00
2022-09-23T07:01:19.987Z,100.00
2022-09-23T07:03:50.108Z,100.00
2022-09-23T07:06:17.369Z,100.00
2022-09-23T07:08:47.167Z,100.00
2022-09-23T07:11:15.001Z,100.00
2022-09-23T07:13:42.580Z,100.00
2022-09-23T07:16:10.806Z,100.00
2022-09-23T07:18:37.852Z,100.00
2022-09-23T07:21:16.023Z,100.00
2022-09-23T07:23:48.551Z,100.00
2022-09-23T07:26:16.521Z,100.00
2022-09-23T07:28:43.679Z,100.00
2022-09-23T07:31:13.848Z,100.00
2022-09-23T07:33:46.445Z,100.00
2022-09-23T07:36:17.159Z,100.00
2022-09-23T07:38:45.809Z,100.00
2022-09-23T07:41:15.170Z,100.00
2022-09-23T07:43:42.345Z,100.00
2022-09-23T07:46:14.341Z,100.00
2022-09-23T07:48:41.340Z,100.00
2022-09-23T07:51:10.674Z,100.00
2022-09-23T07:53:37.906Z,100.00
2022-09-23T07:56:06.308Z,100.00
2022-09-23T07:58:35.142Z,100.00
2022-09-23T08:01:04.765Z,100.00
2022-09-23T08:03:32.236Z,100.00
2022-09-23T08:06:11.037Z,100.00
2022-09-23T08:08:45.062Z,100.00
2022-09-23T08:11:14.755Z,100.00
2022-09-23T08:13:42.239Z,100.00
2022-09-23T08:16:09.858Z,100.00
2022-09-23T08:18:36.729Z,100.00
2022-09-23T08:21:06.881Z,100.00
2022-09-23T08:23:33.838Z,100.00
2022-09-23T08:26:02.840Z,100.00
2022-09-23T08:28:29.758Z,100.00
2022-09-23T08:30:56.491Z,98.54
2022-09-23T08:33:24.192Z,98.39
2022-09-23T08:35:52.535Z,97.12
2022-09-23T08:38:19.797Z,93.13
2022-09-23T08:40:49.322Z,91.34
2022-09-23T08:43:34.481Z,89.34
2022-09-23T08:46:05.256Z,87.15
2022-09-23T08:48:36.675Z,86.32
2022-09-23T08:51:11.958Z,87.22
2022-09-23T08:53:39.175Z,86.16
2022-09-23T08:56:16.370Z,84.95
2022-09-23T08:59:11.764Z,84.82
2022-09-23T09:01:48.302Z,82.85
2022-09-23T09:04:38.386Z,80.58
2022-09-23T09:07:34.655Z,83.73
2022-09-23T09:10:03.317Z,81.66
2022-09-23T09:12:43.455Z,80.68
2022-09-23T09:15:13.087Z,79.40
2022-09-23T09:17:50.110Z,79.01
2022-09-23T09:20:24.065Z,78.27
2022-09-23T09:22:59.973Z,76.03
2022-09-23T09:25:52.318Z,73.96
2022-09-23T09:28:24.966Z,74.68
2022-09-23T09:30:56.365Z,75.21
2022-09-23T09:33:44.893Z,74.58
2022-09-23T09:36:30.907Z,73.00
2022-09-23T09:39:00.850Z,72.01
2022-09-23T09:41:31.359Z,69.34
2022-09-23T09:44:00.794Z,68.58
2022-09-23T09:46:51.615Z,69.13
2022-09-23T09:49:23.176Z,65.86
2022-09-23T09:52:12.579Z,65.73
2022-09-23T09:54:39.541Z,66.09
2022-09-23T09:57:35.210Z,65.30
2022-09-23T10:00:21.577Z,65.10
2022-09-23T10:03:03.436Z,67.30
2022-09-23T10:05:45.203Z,64.85
2022-09-23T10:08:35.430Z,64.65
2022-09-23T10:11:04.010Z,63.59
2022-09-23T10:13:31.695Z,60.48
2022-09-23T10:16:00.380Z,59.34
2022-09-23T10:18:29.265Z,57.92
2022-09-23T10:21:17.503Z,57.46
2022-09-23T10:23:46.620Z,56.37
2022-09-23T10:26:17.223Z,54.60
2022-09-23T10:28:55.464Z,52.97
2022-09-23T10:31:29.908Z,54.00
2022-09-23T10:34:00.273Z,51.69
2022-09-23T10:36:29.234Z,51.92
2022-09-23T10:39:20.326Z,53.28
2022-09-23T10:42:21.948Z,50.32
2022-09-23T10:45:24.580Z,49.50
2022-09-23T10:48:09.279Z,49.72
2022-09-23T10:50:45.990Z,48.64
2022-09-23T10:53:23.178Z,47.22
2022-09-23T10:56:05.427Z,46.60
2022-09-23T10:59:00.511Z,47.31
2022-09-23T11:01:39.921Z,48.07
2022-09-23T11:04:16.605Z,46.85
2022-09-23T11:07:07.888Z,45.22
2022-09-23T11:09:48.699Z,45.80
2022-09-23T11:12:42.476Z,45.32
2022-09-23T11:15:35.778Z,46.74
2022-09-23T11:18:31.591Z,45.55
2022-09-23T11:21:07.067Z,45.57
2022-09-23T11:23:55.947Z,44.90
2022-09-23T11:26:58.034Z,45.18
2022-09-23T11:29:30.721Z,44.89
2022-09-23T11:32:15.626Z,43.69
2022-09-23T11:35:13.255Z,44.40
2022-09-23T11:37:48.824Z,44.43
2022-09-23T11:40:30.047Z,44.92
2022-09-23T11:43:01.697Z,45.79
2022-09-23T11:45:33.859Z,44.93
2022-09-23T11:48:18.030Z,43.57
2022-09-23T11:50:58.821Z,45.14
2022-09-23T11:53:28.315Z,45.96
2022-09-23T11:56:33.479Z,42.84
2022-09-23T11:59:38.822Z,44.82
2022-09-23T12:02:36.700Z,44.28
2022-09-23T12:05:16.587Z,44.44
2022-09-23T12:08:06.668Z,42.96
2022-09-23T12:10:42.106Z,43.30
2022-09-23T12:13:11.833Z,43.51
2022-09-23T12:15:50.604Z,43.84
2022-09-23T12:18:39.438Z,43.25
2022-09-23T12:21:51.556Z,42.15
2022-09-23T12:24:34.952Z,41.85
2022-09-23T12:27:06.712Z,41.55
2022-09-23T12:29:35.531Z,41.78
2022-09-23T12:32:09.800Z,40.50
2022-09-23T12:34:49.204Z,42.19
2022-09-23T12:37:29.003Z,40.61
2022-09-23T12:40:01.875Z,39.10
2022-09-23T12:42:31.305Z,39.73
2022-09-23T12:45:16.821Z,39.26
2022-09-23T12:47:44.043Z,39.07
2022-09-23T12:50:50.773Z,39.98
2022-09-23T12:53:35.488Z,38.29
2022-09-23T12:56:15.094Z,39.00
2022-09-23T12:58:41.710Z,39.30
2022-09-23T13:01:14.828Z,39.44
2022-09-23T13:04:04.035Z,39.85
2022-09-23T13:06:41.643Z,40.46
2022-09-23T13:09:20.695Z,39.49
2022-09-23T13:11:48.361Z,38.90
2022-09-23T13:14:21.946Z,38.73
2022-09-23T13:16:52.715Z,37.16
2022-09-23T13:19:25.167Z,37.41
2022-09-23T13:21:54.824Z,37.61
2022-09-23T13:24:31.012Z,36.46
2022-09-23T13:27:19.245Z,35.81
2022-09-23T13:30:04.367Z,37.11
2022-09-23T13:32:44.748Z,36.53
2022-09-23T13:35:29.913Z,35.76
2022-09-23T13:37:57.393Z,36.88
2022-09-23T13:40:27.369Z,38.75
2022-09-23T13:42:59.295Z,37.41
2022-09-23T13:45:27.704Z,38.52
2022-09-23T13:48:01.702Z,38.08
2022-09-23T13:50:34.663Z,38.97
2022-09-23T13:53:07.051Z,37.97
2022-09-23T13:55:39.020Z,38.47
2022-09-23T13:58:17.476Z,40.75
2022-09-23T14:00:44.944Z,39.78
2022-09-23T14:03:18.799Z,39.77
2022-09-23T14:05:46.268Z,40.33
2022-09-23T14:08:13.045Z,39.77
2022-09-23T14:10:42.841Z,41.27
2022-09-23T14:13:16.952Z,41.27
2022-09-23T14:15:44.707Z,41.98
2022-09-23T14:18:18.239Z,41.41
2022-09-23T14:20:47.054Z,40.31
2022-09-23T14:23:14.651Z,40.26
2022-09-23T14:25:44.314Z,39.90
2022-09-23T14:28:22.805Z,37.58
2022-09-23T14:30:57.021Z,39.83
2022-09-23T14:33:27.500Z,38.60
2022-09-23T14:36:01.691Z,36.87
2022-09-23T14:38:48.330Z,36.27
2022-09-23T14:41:21.832Z,36.77
2022-09-23T14:43:52.885Z,37.21
2022-09-23T14:46:21.142Z,37.90
2022-09-23T14:49:16.251Z,38.84
2022-09-23T14:51:55.215Z,38.67
2022-09-23T14:54:40.145Z,38.97
2022-09-23T14:57:27.025Z,38.95
2022-09-23T15:00:05.966Z,38.60
2022-09-23T15:02:34.005Z,39.96
2022-09-23T15:05:22.167Z,40.22
2022-09-23T15:07:55.408Z,39.54
2022-09-23T15:10:37.395Z,40.31
2022-09-23T15:13:28.547Z,40.68
2022-09-23T15:15:57.517Z,40.68
2022-09-23T15:18:28.952Z,41.51
2022-09-23T15:21:11.253Z,42.18
2022-09-23T15:23:40.838Z,42.18
2022-09-23T15:26:13.731Z,42.33
2022-09-23T15:28:41.070Z,42.49
2022-09-23T15:31:20.928Z,42.77
2022-09-23T15:33:48.612Z,43.31
2022-09-23T15:36:22.824Z,43.83
2022-09-23T15:38:49.661Z,43.56
2022-09-23T15:41:17.346Z,44.18
2022-09-23T15:43:44.504Z,44.17
2022-09-23T15:46:19.166Z,44.43
2022-09-23T15:49:08.876Z,45.34
2022-09-23T15:51:37.478Z,45.52
2022-09-23T15:54:09.095Z,45.85
2022-09-23T15:56:35.568Z,46.05
2022-09-23T15:59:02.070Z,46.89
2022-09-23T16:01:31.625Z,46.80
2022-09-23T16:04:01.058Z,47.64
2022-09-23T16:06:27.864Z,47.14
2022-09-23T16:08:54.862Z,47.13
2022-09-23T16:11:25.093Z,46.87
2022-09-23T16:13:52.336Z,46.77
2022-09-23T16:16:22.510Z,48.04
2022-09-23T16:18:51.218Z,48.18
2022-09-23T16:21:20.817Z,49.62
2022-09-23T16:23:50.046Z,50.42
2022-09-23T16:26:25.662Z,49.11
2022-09-23T16:28:53.870Z,50.11
2022-09-23T16:31:25.212Z,50.40
2022-09-23T16:33:53.522Z,53.38
2022-09-23T16:36:26.886Z,52.89
2022-09-23T16:38:55.447Z,53.60
2022-09-23T16:41:23.387Z,53.49
2022-09-23T16:43:50.899Z,54.42
2022-09-23T16:46:18.776Z,55.10
2022-09-23T16:48:51.409Z,59.18
2022-09-23T16:51:26.350Z,61.39
2022-09-23T16:53:54.501Z,63.02
2022-09-23T16:56:28.159Z,65.12
2022-09-23T16:58:56.506Z,66.58
2022-09-23T17:01:47.310Z,66.40
2022-09-23T17:04:15.801Z,68.76
2022-09-23T17:06:51.191Z,68.95
2022-09-23T17:09:20.016Z,69.55
2022-09-23T17:11:58.818Z,69.06
2022-09-23T17:14:25.467Z,68.35
2022-09-23T17:16:52.085Z,69.82
2022-09-23T17:19:18.501Z,70.61
2022-09-23T17:21:45.092Z,71.97
2022-09-23T17:24:11.490Z,73.90
2022-09-23T17:26:38.372Z,74.37
2022-09-23T17:29:05.514Z,74.78
2022-09-23T17:31:32.670Z,75.30
2022-09-23T17:33:59.281Z,75.07
2022-09-23T17:36:28.086Z,75.92
2022-09-23T17:38:54.492Z,76.10
2022-09-23T17:41:21.965Z,76.74
2022-09-23T17:43:54.262Z,77.99
2022-09-23T17:46:20.934Z,79.18
2022-09-23T17:48:47.601Z,80.97
2022-09-23T17:51:16.631Z,80.73
2022-09-23T17:53:45.225Z,81.10
2022-09-23T17:56:19.977Z,81.62
2022-09-23T17:58:47.704Z,81.51
2022-09-23T18:01:17.736Z,83.03
2022-09-23T18:03:45.000Z,84.55
2022-09-23T18:06:17.440Z,84.39
2022-09-23T18:08:46.355Z,85.29
2022-09-23T18:11:20.162Z,84.70
2022-09-23T18:13:57.526Z,83.97
2022-09-23T18:16:26.434Z,85.15
2022-09-23T18:18:55.545Z,85.80
2022-09-23T18:21:23.462Z,84.99
2022-09-23T18:23:50.797Z,85.14
2022-09-23T18:26:20.108Z,84.45
2022-09-23T18:28:47.863Z,84.14
2022-09-23T18:31:15.436Z,83.90
2022-09-23T18:33:42.095Z,83.78
2022-09-23T18:36:09.934Z,84.74
2022-09-23T18:38:37.544Z,84.36
2022-09-23T18:41:04.562Z,86.04
2022-09-23T18:43:37.493Z,85.40
2022-09-23T18:46:11.066Z,86.83
2022-09-23T18:48:56.277Z,87.78
2022-09-23T18:51:25.632Z,88.89
2022-09-23T18:53:57.614Z,89.51
2022-09-23T18:56:26.854Z,90.23
2022-09-23T18:58:55.356Z,91.61
2022-09-23T19:01:23.442Z,92.08
2022-09-23T19:04:02.558Z,91.29
2022-09-23T19:06:31.550Z,92.71
2022-09-23T19:08:58.366Z,92.48
2022-09-23T19:11:24.918Z,93.51
2022-09-23T19:13:56.265Z,94.00
2022-09-23T19:16:23.763Z,94.15
2022-09-23T19:18:51.251Z,95.46
2022-09-23T19:21:20.611Z,96.02
2022-09-23T19:23:49.615Z,96.22
2022-09-23T19:26:18.822Z,96.27
2022-09-23T19:28:50.035Z,97.22
2022-09-23T19:31:22.427Z,95.98
2022-09-23T19:33:59.333Z,96.75
2022-09-23T19:36:29.061Z,98.72
2022-09-23T19:38:57.789Z,100.00
2022-09-23T19:41:27.187Z,100.00
2022-09-23T19:43:54.687Z,99.96
2022-09-23T19:46:22.249Z,100.00
2022-09-23T19:48:48.969Z,99.75
2022-09-23T19:51:18.182Z,100.00
2022-09-23T19:53:45.987Z,100.00
2022-09-23T19:56:17.610Z,100.00
2022-09-23T19:58:47.680Z,100.00
2022-09-23T20:01:18.664Z,100.00
2022-09-23T20:03:45.607Z,100.00
2022-09-23T20:06:12.132Z,100.00
2022-09-23T20:08:39.340Z,100.00
2022-09-23T20:11:15.806Z,100.00
2022-09-23T20:13:47.019Z,100.00
2022-09-23T20:16:16.170Z,100.00
2022-09-23T20:18:43.197Z,100.00
2022-09-23T20:21:13.336Z,100.00
2022-09-23T20:23:39.931Z,100.00
2022-09-23T20:26:26.252Z,100.00
2022-09-23T20:28:53.561Z,100.00
2022-09-23T20:31:22.144Z,100.00
2022-09-23T20:33:58.335Z,100.00
2022-09-23T20:36:29.327Z,100.00
2022-09-23T20:38:57.310Z,100.00
2022-09-23T20:41:24.287Z,100.00
2022-09-23T20:43:54.462Z,100.00
2022-09-23T20:46:24.811Z,100.00
2022-09-23T20:48:51.919Z,100.00
2022-09-23T20:51:18.518Z,100.00
2022-09-23T20:53:45.694Z,100.00
2022-09-23T20:56:13.197Z,100.00
2022-09-23T20:58:44.462Z,100.00
2022-09-23T21:01:11.756Z,100.00
2022-09-23T21:03:41.119Z,100.00
2022-09-23T21:06:09.646Z,100.00
2022-09-23T21:08:37.298Z,100.00
2022-09-23T21:11:07.989Z,100.00
2022-09-23T21:13:34.511Z,100.00
2022-09-23T21:16:11.450Z,100.00
2022-09-23T21:18:38.744Z,100.00
2022-09-23T21:21:06.213Z,100.00
2022-09-23T21:23:38.098Z,100.00
2022-09-23T21:26:10.874Z,100.00
2022-09-23T21:28:40.079Z,100.00
2022-09-23T21:31:09.457Z,100.00
2022-09-23T21:33:37.291Z,100.00
2022-09-23T21:36:06.081Z,100.00
2022-09-23T21:38:39.301Z,100.00
2022-09-23T21:41:08.608Z,100.00
2022-09-23T21:43:38.237Z,100.00
2022-09-23T21:46:07.926Z,100.00
2022-09-23T21:48:42.313Z,100.00
2022-09-23T21:51:14.795Z,100.00
2022-09-23T21:53:43.213Z,100.00
2022-09-23T21:56:20.298Z,100.00
2022-09-23T21:58:50.034Z,100.00
2022-09-23T22:01:22.414Z,100.00
2022-09-23T22:03:52.036Z,100.00
2022-09-23T22:06:21.840Z,100.00
2022-09-23T22:08:50.293Z,100.00
2022-09-23T22:11:37.853Z,100.00
2022-09-23T22:14:07.228Z,100.00
2022-09-23T22:16:34.323Z,100.00
2022-09-23T22:19:01.909Z,100.00
2022-09-23T22:21:30.001Z,100.00
2022-09-23T22:24:01.457Z,100.00
2022-09-23T22:26:31.360Z,100.00
2022-09-23T22:29:16.507Z,100.00
2022-09-23T22:32:01.877Z,100.00
2022-09-23T22:34:48.522Z,100.00
2022-09-23T22:37:17.991Z,100.00
2022-09-23T22:39:45.054Z,100.00
2022-09-23T22:42:12.984Z,100.00
2022-09-23T22:44:39.537Z,100.00
2022-09-23T22:47:06.596Z,100.00
2022-09-23T22:49:33.155Z,100.00
2022-09-23T22:51:59.900Z,100.00
2022-09-23T22:54:33.611Z,100.00
2022-09-23T22:57:04.453Z,100.00
2022-09-23T22:59:30.951Z,100.00
2022-09-23T23:02:00.319Z,100.00
2022-09-23T23:04:27.471Z,100.00
2022-09-23T23:06:54.136Z,100.00
2022-09-23T23:09:20.805Z,100.00
2022-09-23T23:11:47.284Z,100.00
2022-09-23T23:14:16.723Z,100.00
2022-09-23T23:16:45.743Z,100.00
2022-09-23T23:19:14.449Z,100.00
2022-09-23T23:21:44.674Z,100.00
2022-09-23T23:24:15.915Z,100.00
2022-09-23T23:26:42.469Z,100.00
2022-09-23T23:29:11.456Z,100.00
2022-09-23T23:31:38.802Z,100.00
2022-09-23T23:34:08.237Z,100.00
2022-09-23T23:36:35.138Z,100.00
2022-09-23T23:39:01.841Z,100.00
2022-09-23T23:41:28.941Z,100.00
2022-09-23T23:43:58.925Z,100.00
2022-09-23T23:46:28.182Z,100.00
2022-09-23T23:48:55.895Z,100.00
2022-09-23T23:51:25.790Z,100.00
2022-09-23T23:53:54.045Z,100.00
2022-09-23T23:56:22.966Z,100.00
2022-09-23T23:59:01.035Z,100.00
